• Join FlightAware (Why Join?)
  • Login
  • US Flag 
09:21PM EDT


 

Airport Tracker/Info


-or-


 

Live Flight TrackerFlight Track Log ✈ UAL1177 ✈ 25-Apr-2013 ✈ KSFO - KSTL

Flight Track Log - Related Links

Times and Time Zones

All times are in EDT time to prevent confusion due to time zone crossing. See the UAL1177 flight status page for this flight to view local times or setup timezone preferences in your user account.

Time Position Orientation Groundspeed Altitude Reporting Facility
EDT Latitude Longitude Course Direction KTS MPH feet Rate Location/Type
03:38PM 37.6667 -122.3333 63° Northeast 207 238 2,200  Level Northern Cal TRACON
03:39PM 37.7000 -122.2667 58° Northeast 245 282 5,300 3,180 Climbing Northern Cal TRACON
03:40PM 37.7233 -122.2403 42° Northeast 249 287 6,600 3,180 Climbing Oakland Center
03:41PM 37.7603 -122.1528 62° Northeast 281 323 10,200 3,120 Climbing Oakland Center
03:42PM 37.7110 -122.0781 70° East  Level FlightAware Approximate
03:42PM 37.7889 -122.0450 71° East 314 361 13,000  Level Oakland Center
03:43PM 37.7604 -121.9189 67° East  Level FlightAware Approximate
03:43PM 37.8217 -121.9325 70° East 341 392 16,300  Level Oakland Center
03:44PM 37.8090 -121.7608 63° Northeast  Level FlightAware Approximate
03:44PM 37.8553 -121.8153 70° East 353 406 19,300  Level Oakland Center
03:45PM 37.8931 -121.6706 72° East 363 418 22,400 2,640 Climbing Oakland Center
03:46PM 37.9289 -121.5433 70° East 380 437 24,800 2,220 Climbing Oakland Center
03:47PM 37.9642 -121.4083 72° East 388 447 27,000 1,920 Climbing Oakland Center
03:48PM 38.0006 -121.2747 71° East 401 461 28,800 1,740 Climbing Oakland Center
03:49PM 38.0383 -121.1389 71° East 410 472 30,600 1,920 Climbing Oakland Center
03:50PM 38.0739 -121.0022 72° East 411 473 32,800 1,740 Climbing Oakland Center
03:51PM 38.0942 -120.8625 80° East 408 470 34,200 1,260 Climbing Oakland Center
03:52PM 38.1122 -120.7192 81° East 413 475 35,400 1,020 Climbing Oakland Center
03:53PM 38.1369 -120.5428 80° East 423 487 36,400 840 Climbing Oakland Center
03:54PM 38.1558 -120.3906 81° East 432 497 37,200 780 Climbing Oakland Center
03:55PM 38.1764 -120.2356 80° East 443 510 38,000 780 Climbing Oakland Center
03:56PM 38.1967 -120.0761 81° East 455 524 38,900 480 Climbing Oakland Center
03:57PM 38.2175 -119.9183 80° East 456 525 39,000  Climbing Oakland Center
03:58PM 38.2378 -119.7617 81° East 452 520 39,000  Level Oakland Center
03:59PM 38.2572 -119.6047 81° East 451 519 39,000  Level Oakland Center
04:00PM 38.2775 -119.4325 81° East 450 518 39,000  Level Oakland Center
04:01PM 38.2969 -119.2778 81° East 446 513 39,000  Level Oakland Center
04:02PM 38.3156 -119.1228 81° East 446 513 39,000  Level Oakland Center
04:03PM 38.3342 -118.9661 81° East 448 516 39,000  Level Oakland Center
04:04PM 38.3558 -118.7786 82° East 448 516 39,000  Level Oakland Center
04:06PM 38.3772 -118.5898 82° East  Level FlightAware Approximate
04:06PM 38.3892 -118.4975 82° East 447 514 39,000  Level Salt Lake Center
04:07PM 38.4064 -118.3306 82° East 451 519 39,000  Level Salt Lake Center
04:08PM 38.4247 -118.1739 81° East 449 517 39,000  Level Salt Lake Center
04:09PM 38.4422 -118.0161 82° East 448 516 39,000  Level Salt Lake Center
04:10PM 38.4597 -117.8581 82° East 449 517 39,000  Level Salt Lake Center
04:12PM 38.4797 -117.6658 82° East 451 519 39,000  Level Oakland Center
04:13PM 38.4978 -117.5072 82° East 450 518 39,000  Level Oakland Center
04:14PM 38.5144 -117.3453 82° East 453 521 39,000  Level Oakland Center
04:14PM 38.5233 -117.2139 85° East 458 527 39,000  Level Salt Lake Center
04:15PM 38.5353 -117.0492 85° East 460 529 39,000  Level Salt Lake Center
04:16PM 38.5500 -116.8517 84° East 463 533 39,000  Level Salt Lake Center
04:18PM 38.5608 -116.6861 85° East 464 534 39,000  Level Oakland Center
04:19PM 38.5750 -116.4892 85° East 463 533 39,000  Level Oakland Center
04:20PM 38.5833 -116.3572 85° East 466 536 39,000  Level Salt Lake Center
04:21PM 38.5947 -116.1933 85° East 463 533 39,000  Level Salt Lake Center
04:22PM 38.6061 -116.0283 85° East 465 535 39,000  Level Salt Lake Center
04:23PM 38.6156 -115.8636 86° East 465 535 39,000  Level Salt Lake Center
04:24PM 38.6267 -115.6961 85° East 471 542 39,000  Level Salt Lake Center
04:25PM 38.6356 -115.5289 86° East 471 542 39,000  Level Salt Lake Center
04:26PM 38.6467 -115.3553 85° East 478 550 39,000  Level Salt Lake Center
04:27PM 38.6589 -115.1525 86° East 477 549 39,000  Level Salt Lake Center
04:28PM 38.6675 -114.9839 86° East 477 549 39,000  Level Salt Lake Center
04:29PM 38.6789 -114.8153 85° East 476 548 39,000  Level Salt Lake Center
04:30PM 38.6881 -114.6478 86° East 473 544 39,000  Level Salt Lake Center
04:31PM 38.6964 -114.4803 86° East 473 544 39,000  Level Salt Lake Center
04:32PM 38.7044 -114.3136 86° East 470 541 39,000  Level Salt Lake Center
04:33PM 38.7122 -114.1478 87° East 468 539 39,000  Level Salt Lake Center
04:34PM 38.7200 -113.9806 87° East 470 541 39,000  Level Salt Lake Center
04:35PM 38.7300 -113.7792 86° East 472 543 39,000  Level Salt Lake Center
04:36PM 38.7367 -113.6131 87° East 468 539 39,000  Level Salt Lake Center
04:37PM 38.7439 -113.4444 87° East 472 543 39,000  Level Salt Lake Center
04:38PM 38.7508 -113.2786 87° East 467 537 39,000  Level Salt Lake Center
04:39PM 38.7575 -113.1106 87° East 470 541 39,000  Level Salt Lake Center
04:40PM 38.7639 -112.9411 87° East 474 545 39,000  Level Salt Lake Center
04:41PM 38.7700 -112.7717 87° East 475 547 39,000  Level Salt Lake Center
04:43PM 38.7775 -112.5462 87° East  Level FlightAware Approximate
04:43PM 38.7836 -112.4006 87° East 474 545 39,000  Level Salt Lake Center
04:44PM 38.7883 -112.2297 88° East 478 550 39,000  Level Salt Lake Center
04:45PM 38.7939 -112.0608 88° East 476 548 39,000  Level Salt Lake Center
04:46PM 38.7992 -111.8906 88° East 478 550 39,000  Level Salt Lake Center
04:47PM 38.8044 -111.7211 88° East 476 548 39,000  Level Salt Lake Center
04:48PM 38.8081 -111.5533 88° East 472 543 39,000  Level Salt Lake Center
04:49PM 38.8133 -111.3861 88° East 470 541 39,000  Level Salt Lake Center
04:50PM 38.8172 -111.2197 88° East 468 539 39,000  Level Salt Lake Center
04:51PM 38.8214 -111.0186 88° East 470 541 39,000  Level Salt Lake Center
04:52PM 38.8247 -110.8631 88° East 471 542 39,000  Level Salt Lake Center
04:53PM 38.8272 -110.6747 89° East 474 545 39,000  Level Salt Lake Center
04:55PM 38.8297 -110.5131 89° East 474 545 39,000  Level Salt Lake Center
04:56PM 38.8336 -110.3244 88° East 476 548 39,000  Level Salt Lake Center
04:57PM 38.8508 -110.1644 82° East 475 547 39,000  Level Salt Lake Center
04:58PM 38.8800 -109.9783 79° East 476 548 39,000  Level Salt Lake Center
04:58PM 38.8992 -109.8428 80° East 477 549 39,000  Level Denver Center
04:59PM 38.9244 -109.6822 79° East 480 552 39,000  Level Denver Center
05:01PM 38.9528 -109.4917 79° East 488 562 39,000  Level Denver Center
05:02PM 38.9786 -109.3294 78° East 484 557 39,000  Level Denver Center
05:03PM 39.0064 -109.1394 79° East 485 558 39,000  Level Denver Center
05:04PM 39.0311 -108.9772 79° East 486 559 39,000  Level Denver Center
05:05PM 39.0594 -108.7892 79° East 483 556 39,000  Level Denver Center
05:06PM 39.1044 -108.5764 75° East 487 560 39,000  Level Denver Center
05:07PM 39.1381 -108.4156 75° East 489 563 39,000  Level Denver Center
05:08PM 39.1764 -108.2264 75° East 492 566 39,000  Level Denver Center
05:09PM 39.2094 -108.0647 75° East 490 564 39,000  Level Denver Center
05:10PM 39.2417 -107.9017 76° East 493 567 39,000  Level Denver Center
05:11PM 39.2797 -107.7114 75° East 491 565 39,000  Level Denver Center
05:12PM 39.3125 -107.5472 75° East 496 571 39,000  Level Denver Center
05:13PM 39.3506 -107.3564 75° East 491 565 39,000  Level Denver Center
05:14PM 39.3825 -107.1914 76° East 496 571 39,000  Level Denver Center
05:15PM 39.4194 -107.0017 76° East 490 564 39,000  Level Denver Center
05:16PM 39.4481 -106.8375 77° East 488 562 39,000  Level Denver Center
05:17PM 39.4700 -106.6397 82° East 497 572 39,000  Level Denver Center
05:18PM 39.4878 -106.4850 81° East 498 573 39,000  Level Denver Center
05:19PM 39.5086 -106.3081 81° East 498 573 39,000  Level Denver Center
05:21PM 39.5336 -106.0947 81° East 498 573 39,000  Level Denver Center
05:22PM 39.5569 -105.8825 82° East 496 571 39,000  Level Denver Center
05:23PM 39.5781 -105.7017 81° East 505 581 39,000  Level Denver Center
05:24PM 39.6003 -105.4853 82° East 497 572 39,000  Level Denver Center
05:25PM 39.6222 -105.2939 81° East 500 575 39,000  Level Denver Center
05:26PM 39.6394 -105.1156 83° East 501 577 39,000  Level Denver Center
05:27PM 39.6589 -104.9242 82° East 500 575 39,000  Level Denver Center
05:28PM 39.6767 -104.7469 83° East 500 575 39,000  Level Denver Center
05:29PM 39.6825 -104.5556 88° East 504 580 39,000  Level Denver Center
05:30PM 39.6675 -104.3817 96° East 489 563 39,000  Level Denver Center
05:31PM 39.6500 -104.1942 97° East 487 560 39,000  Level Denver Center
05:32PM 39.6306 -104.0222 98° East 483 556 39,000  Level Denver Center
05:33PM 39.6158 -103.8331 96° East 492 566 39,000  Level Denver Center
05:34PM 39.5981 -103.6606 98° East 474 545 39,000  Level Denver Center
05:35PM 39.5825 -103.4919 97° East 484 557 39,000  Level Denver Center
05:36PM 39.5619 -103.2953 98° East 491 565 39,000  Level Denver Center
05:37PM 39.5436 -103.1211 98° East 502 578 39,000  Level Denver Center
05:38PM 39.5239 -102.9228 97° East 500 575 39,000  Level Denver Center
05:39PM 39.5053 -102.7525 98° East 499 574 39,000  Level Denver Center
05:40PM 39.4847 -102.5617 98° East 507 583 39,000  Level Denver Center
05:41PM 39.4633 -102.3603 98° East 508 585 39,000  Level Denver Center
05:42PM 39.4439 -102.1881 98° East 507 583 39,000  Level Denver Center
05:43PM 39.4242 -102.0131 98° East 514 592 39,000  Level Denver Center
05:44PM 39.4014 -101.8092 98° East 517 595 39,000  Level Denver Center
05:46PM 39.3806 -101.6342 99° East 518 596 39,000  Level Denver Center
05:47PM 39.3614 -101.4275 97° East 520 598 39,000  Level Denver Center
05:48PM 39.3453 -101.2494 97° East 522 601 39,000  Level Denver Center
05:49PM 39.3236 -101.0436 98° East 520 598 39,000  Level Denver Center
05:50PM 39.3053 -100.8672 98° East 520 598 39,000  Level Denver Center
05:51PM 39.2844 -100.6594 97° East 525 604 39,000  Level Denver Center
05:52PM 39.2661 -100.4842 98° East 519 597 39,000  Level Denver Center
05:53PM 39.2433 -100.2772 98° East 522 601 39,000  Level Denver Center
05:54PM 39.2239 -100.0997 98° East 523 602 39,000  Level Denver Center
05:55PM 39.2033 -99.9111 98° East 523 602 39,000  Level Denver Center
05:56PM 39.1797 -99.7019 98° East 528 608 39,000  Level Denver Center
05:57PM 39.1594 -99.5242 98° East 524 603 39,000  Level Denver Center
05:58PM 39.1356 -99.3158 98° East 527 606 39,000  Level Denver Center
05:59PM 39.1144 -99.1378 99° East 526 605 39,000  Level Denver Center
06:00PM 39.0894 -98.9239 98° East 530 610 39,000  Level Denver Center
06:01PM 39.0739 -98.7967 99° East 530 610 39,000  Level Kansas City Center
06:02PM 39.0506 -98.6097 99° East 528 608 39,000  Level Kansas City Center
06:03PM 39.0283 -98.4228 99° East 528 608 39,000  Level Kansas City Center
06:04PM 39.0044 -98.2372 99° East 525 604 39,000  Level Kansas City Center
06:05PM 38.9753 -98.0147 100° East 525 604 39,000  Level Kansas City Center
06:06PM 38.9528 -97.8322 99° East 528 608 39,000  Level Kansas City Center
06:07PM 38.9303 -97.6553 99° East 526 605 39,000  Level Kansas City Center
06:08PM 38.8931 -97.4564 103° East 528 608 39,000  Level Kansas City Center
06:09PM 38.8578 -97.2733 104° East 527 606 39,000  Level Kansas City Center
06:10PM 38.8219 -97.0897 104° East 529 609 39,000  Level Kansas City Center
06:11PM 38.7844 -96.9061 105° East 530 610 39,000  Level Kansas City Center
06:13PM 38.7367 -96.6851 105° East  Level FlightAware Approximate
06:13PM 38.7058 -96.5181 105° East 532 612 39,000  Level Kansas City Center
06:14PM 38.6642 -96.3144 105° East 532 612 39,000  Level Kansas City Center
06:15PM 38.6278 -96.1394 105° East 533 613 39,000  Level Kansas City Center
06:16PM 38.5853 -95.9347 105° East 535 616 39,000  Level Kansas City Center
06:17PM 38.5492 -95.7611 105° East 533 613 39,000  Level Kansas City Center
06:18PM 38.5058 -95.5592 105° East 533 613 39,000  Level Kansas City Center
06:19PM 38.4692 -95.3847 105° East 534 615 39,000  Level Kansas City Center
06:20PM 38.4247 -95.1817 106° East 534 615 39,000  Level Kansas City Center
06:21PM 38.3875 -95.0078 105° East 534 615 39,000  Level Kansas City Center
06:22PM 38.3419 -94.8056 106° East 533 613 39,000  Level Kansas City Center
06:24PM 38.3036 -94.6297 105° East 538 619 39,000  Level Kansas City Center
06:25PM 38.2844 -94.4186 97° East 550 633 39,000  Level Kansas City Center
06:26PM 38.3128 -94.2444 78° East 538 619 39,000  Level Kansas City Center
06:27PM 38.3447 -94.0389 79° East 534 615 39,000  Level Kansas City Center
06:28PM 38.3742 -93.8544 78° East 532 612 39,000  Level Kansas City Center
06:29PM 38.4050 -93.6681 78° East 533 613 39,000  Level Kansas City Center
06:30PM 38.4350 -93.4847 78° East 530 610 39,000 -540 Level Kansas City Center
06:31PM 38.4631 -93.3033 79° East 523 602 37,900 -1,260 Descending Kansas City Center
06:32PM 38.4897 -93.1261 79° East 513 590 36,500 -1,500 Descending Kansas City Center
06:33PM 38.5211 -92.9194 79° East 497 572 34,900 -1,500 Descending Kansas City Center
06:34PM 38.5464 -92.7531 79° East 482 555 33,500 -1,440 Descending Kansas City Center
06:35PM 38.5700 -92.5908 79° East 473 544 31,900 -1,620 Descending Kansas City Center
06:36PM 38.5944 -92.4292 79° East 466 536 30,200 -1,380 Descending Kansas City Center
06:37PM 38.6178 -92.2633 80° East 466 536 29,100 -1,920 Descending Kansas City Center
06:38PM 38.6433 -92.0881 79° East 486 559 26,300 -2,460 Descending Kansas City Center
06:39PM 38.6658 -91.9175 80° East 487 560 24,100 -2,100 Descending Kansas City Center
06:41PM 38.6939 -91.5814 84° East 433 498 19,900 -1,860 Descending Kansas City Center
06:42PM 38.6936 -91.4417 90° East 411 473 18,300 -1,680 Descending Kansas City Center
06:43PM 38.6936 -91.3061 90° East 398 458 16,500 -1,680 Descending Kansas City Center
06:44PM 38.6939 -91.1700 90° East 390 449 15,000 -1,020 Descending Kansas City Center
06:45PM 38.6933 -91.0381 90° East 378 435 14,500 -1,140 Descending Kansas City Center
06:46PM 38.6961 -90.9094 88° East 368 423 12,700 -1,560 Descending Kansas City Center
06:47PM 38.7028 -90.7875 86° East 352 405 11,300 -1,500 Descending Kansas City Center
06:48PM 38.7089 -90.6506 87° East 330 380 9,700 -1,380 Descending Kansas City Center
06:49PM 38.7136 -90.5442 87° East 308 354 8,500 -840 Descending Kansas City Center
06:50PM 38.6856 -90.4578 113° Southeast 286 329 8,000 -780 Descending Kansas City Center
06:51PM 38.6419 -90.3911 130° Southeast 263 303 6,900 -1,260 Descending Kansas City Center
06:52PM 38.5972 -90.3150 127° Southeast 240 276 5,400 -1,500 Descending Kansas City Center